Woolpit, United Kingdom
Current Conditions -  °F | °C
As of 10:58 AM on Friday 24 Oct 2014 (Local Time) from EGUW Reporting Station
Broken Clouds Broken Clouds  
Wind Chill: 15°   Ceiling: 1600
Heat Index: 15°   Visibility: 6mi
Dew Point: 13°   Wind: 9mph
Humidity: 88%   Direction: 210°SSW
Pressure: 29.97"   Gusts: NA
Location:  52.22°N, 0.89°E
Report Text: EGUW 240958Z 21008KT 9999 SCT008 BKN016 BKN100 15/13 Q1015 GRN TEMPO SCT016 WHT
Loading
Personal Weather Stations






























Interactive Weather Map
Tropical Storm Tracking
New forecast layout! Learn more

10-Day Weather Forecast

Advertisements
Track Severe Weather on mobile